Fullerton, North Dakota
Current Conditions -  °F | °C
As of 12:15 AM on Thursday 29 Jan 2015 (Local Time) from KGWR Reporting Station
Overcast Overcast  
Wind Chill: 20°   Ceiling: 1300
Heat Index: 32°   Visibility: 10mi
Dew Point: 32°   Wind: 21mph
Humidity: 100%   Direction: 330°NNW
Pressure: 30.12"   Gusts: 26mph
Location:  46.17°N, 98.43°W
Report Text: KGWR 290615Z AUTO 33018G23KT 10SM OVC013 00/00 A3012 RMK A01 P000
Loading
Personal Weather Stations






























Interactive Weather Map New forecast layout! Learn more

10-Day Weather Forecast

Advertisements
Track Severe Weather on mobile